createdAt,value
2017-10-22T00:00:47.006Z,12.04
2017-10-22T00:03:19.233Z,12.17
2017-10-22T00:05:50.855Z,12.16
2017-10-22T00:08:23.243Z,12.12
2017-10-22T00:10:54.246Z,12.14
2017-10-22T00:13:25.985Z,12.10
2017-10-22T00:15:57.704Z,12.08
2017-10-22T00:18:31.791Z,12.03
2017-10-22T00:21:03.456Z,12.08
2017-10-22T00:23:34.501Z,12.05
2017-10-22T00:26:05.647Z,12.03
2017-10-22T00:28:39.606Z,12.01
2017-10-22T00:31:12.310Z,11.93
2017-10-22T00:33:44.209Z,11.96
2017-10-22T00:36:18.334Z,11.92
2017-10-22T00:38:50.806Z,11.92
2017-10-22T00:41:23.626Z,11.87
2017-10-22T00:43:59.417Z,11.86
2017-10-22T00:46:31.389Z,11.84
2017-10-22T00:49:03.365Z,11.82
2017-10-22T00:51:34.005Z,11.83
2017-10-22T00:54:05.039Z,11.83
2017-10-22T00:56:38.835Z,11.80
2017-10-22T00:59:10.033Z,11.79
2017-10-22T01:01:46.798Z,11.82
2017-10-22T01:04:18.409Z,11.75
2017-10-22T01:06:49.701Z,11.78
2017-10-22T01:09:23.324Z,11.86
2017-10-22T01:11:54.214Z,11.80
2017-10-22T01:14:26.572Z,11.79
2017-10-22T01:17:12.971Z,11.69
2017-10-22T01:19:55.594Z,11.76
2017-10-22T01:22:33.322Z,11.75
2017-10-22T01:25:12.040Z,11.77
2017-10-22T01:27:51.345Z,11.73
2017-10-22T01:30:37.891Z,11.74
2017-10-22T01:33:17.487Z,11.72
2017-10-22T01:35:52.325Z,11.70
2017-10-22T01:38:30.103Z,11.73
2017-10-22T01:43:57.236Z,11.72
2017-10-22T01:46:29.193Z,11.69
2017-10-22T01:49:01.235Z,11.72
2017-10-22T01:51:58.073Z,11.68
2017-10-22T01:54:30.103Z,11.66
2017-10-22T01:57:04.025Z,11.65
2017-10-22T01:59:39.749Z,11.58
2017-10-22T02:02:12.893Z,11.58
2017-10-22T02:04:43.922Z,11.66
2017-10-22T02:07:15.365Z,11.61
2017-10-22T02:09:47.242Z,11.55
2017-10-22T02:12:19.109Z,11.53
2017-10-22T02:14:50.381Z,11.54
2017-10-22T02:17:21.749Z,11.63
2017-10-22T02:19:53.021Z,11.60
2017-10-22T02:22:24.390Z,11.43
2017-10-22T02:24:56.319Z,11.59
2017-10-22T02:27:28.124Z,11.61
2017-10-22T02:30:00.345Z,11.65
2017-10-22T02:32:32.133Z,11.62
2017-10-22T02:35:03.654Z,11.48
2017-10-22T02:37:38.782Z,11.48
2017-10-22T02:40:13.920Z,11.46
2017-10-22T02:42:45.286Z,11.45
2017-10-22T02:45:16.648Z,11.38
2017-10-22T02:47:48.058Z,11.44
2017-10-22T02:50:20.298Z,11.46
2017-10-22T02:52:51.938Z,11.38
2017-10-22T02:55:23.125Z,11.34
2017-10-22T02:57:54.751Z,11.36
2017-10-22T03:00:26.841Z,11.28
2017-10-22T03:02:57.868Z,11.27
2017-10-22T03:05:32.751Z,11.27
2017-10-22T03:08:04.897Z,11.24
2017-10-22T03:10:38.863Z,11.15
2017-10-22T03:13:19.953Z,11.10
2017-10-22T03:16:22.365Z,11.03
2017-10-22T03:19:03.397Z,10.61
2017-10-22T03:21:45.180Z,10.25
2017-10-22T03:24:20.827Z,10.46
2017-10-22T03:26:52.476Z,10.55
2017-10-22T03:29:24.166Z,10.41
2017-10-22T03:31:55.244Z,10.28
2017-10-22T03:34:26.772Z,10.28
2017-10-22T03:36:59.072Z,10.21
2017-10-22T03:39:31.361Z,9.99
2017-10-22T03:42:04.174Z,9.81
2017-10-22T03:44:41.513Z,9.23
2017-10-22T03:47:13.270Z,9.44
2017-10-22T03:49:46.252Z,9.56
2017-10-22T03:52:17.571Z,9.32
2017-10-22T03:54:48.916Z,9.53
2017-10-22T03:57:20.960Z,9.58
2017-10-22T03:59:52.545Z,9.32
2017-10-22T04:02:23.993Z,9.63
2017-10-22T04:04:55.416Z,9.58
2017-10-22T04:07:26.857Z,9.41
2017-10-22T04:09:57.939Z,9.71
2017-10-22T04:12:29.415Z,9.86
2017-10-22T04:15:01.146Z,9.81
2017-10-22T04:17:33.282Z,9.94
2017-10-22T04:20:06.639Z,9.85
2017-10-22T04:22:40.971Z,9.75
2017-10-22T04:25:17.085Z,9.70
2017-10-22T04:27:52.589Z,9.73
2017-10-22T04:30:24.233Z,9.76
2017-10-22T04:32:57.987Z,9.54
2017-10-22T04:35:30.868Z,9.51
2017-10-22T04:38:20.388Z,9.46
2017-10-22T04:43:46.513Z,9.17
2017-10-22T04:46:23.575Z,9.35
2017-10-22T04:49:01.533Z,9.33
2017-10-22T04:51:32.737Z,9.48
2017-10-22T04:54:03.998Z,9.60
2017-10-22T04:56:38.074Z,9.59
2017-10-22T04:59:09.518Z,9.51
2017-10-22T05:01:44.081Z,9.60
2017-10-22T05:04:15.177Z,9.55
2017-10-22T05:06:48.661Z,9.55
2017-10-22T05:09:21.885Z,9.65
2017-10-22T05:11:55.631Z,9.45
2017-10-22T05:14:34.186Z,9.62
2017-10-22T05:17:10.357Z,9.86
2017-10-22T05:20:01.337Z,9.81
2017-10-22T05:22:42.764Z,9.74
2017-10-22T05:25:32.802Z,9.72
2017-10-22T05:28:14.894Z,9.69
2017-10-22T05:30:54.649Z,9.65
2017-10-22T05:33:31.317Z,9.77
2017-10-22T05:36:09.875Z,9.73
2017-10-22T05:39:16.297Z,9.87
2017-10-22T05:44:56.395Z,9.68
2017-10-22T05:47:46.841Z,9.52
2017-10-22T05:50:17.601Z,9.47
2017-10-22T05:52:53.899Z,9.59
2017-10-22T05:55:24.782Z,9.52
2017-10-22T05:57:58.826Z,9.61
2017-10-22T06:00:29.631Z,9.44
2017-10-22T06:03:05.624Z,9.25
2017-10-22T06:05:41.576Z,9.15
2017-10-22T06:08:14.114Z,9.33
2017-10-22T06:10:45.742Z,9.23
2017-10-22T06:13:17.461Z,9.26
2017-10-22T06:15:51.739Z,8.99
2017-10-22T06:18:24.615Z,9.12
2017-10-22T06:20:57.109Z,9.17
2017-10-22T06:23:28.821Z,9.29
2017-10-22T06:26:00.383Z,9.49
2017-10-22T06:28:31.925Z,9.62
2017-10-22T06:31:06.314Z,9.67
2017-10-22T06:33:40.404Z,9.76
2017-10-22T06:36:11.778Z,9.84
2017-10-22T06:38:43.566Z,9.86
2017-10-22T06:41:14.773Z,9.98
2017-10-22T06:43:46.753Z,9.92
2017-10-22T06:46:18.861Z,9.95
2017-10-22T06:48:50.952Z,9.94
2017-10-22T06:51:21.891Z,10.03
2017-10-22T06:53:53.024Z,10.10
2017-10-22T06:56:28.515Z,10.09
2017-10-22T06:59:01.360Z,10.14
2017-10-22T07:01:32.031Z,10.20
2017-10-22T07:04:03.369Z,10.21
2017-10-22T07:06:34.572Z,10.30
2017-10-22T07:09:06.754Z,10.28
2017-10-22T07:14:48.154Z,10.39
2017-10-22T07:17:38.346Z,10.49
2017-10-22T07:20:14.475Z,10.52
2017-10-22T07:22:47.789Z,10.55
2017-10-22T07:25:21.811Z,10.66
2017-10-22T07:27:55.194Z,10.70
2017-10-22T07:30:28.228Z,10.72
2017-10-22T07:33:04.692Z,10.74
2017-10-22T07:35:39.047Z,10.88
2017-10-22T07:38:11.847Z,10.94
2017-10-22T07:40:45.561Z,10.90
2017-10-22T07:43:22.782Z,11.02
2017-10-22T07:48:46.788Z,11.37
2017-10-22T07:51:31.100Z,11.51
2017-10-22T07:54:11.953Z,11.62
2017-10-22T07:56:59.990Z,11.69
2017-10-22T07:59:38.992Z,11.66
2017-10-22T08:02:22.280Z,11.66
2017-10-22T08:05:09.779Z,11.62
2017-10-22T08:07:50.667Z,11.63
2017-10-22T08:10:22.074Z,11.61
2017-10-22T08:12:58.433Z,11.60
2017-10-22T08:15:37.111Z,11.72
2017-10-22T08:18:09.322Z,11.69
2017-10-22T08:20:43.811Z,11.83
2017-10-22T08:23:15.930Z,11.95
2017-10-22T08:25:47.960Z,12.08
2017-10-22T08:28:20.519Z,11.94
2017-10-22T08:30:55.234Z,11.95
2017-10-22T08:33:27.158Z,12.00
2017-10-22T08:35:59.960Z,12.11
2017-10-22T08:38:32.325Z,12.22
2017-10-22T08:41:05.694Z,12.31
2017-10-22T08:43:38.919Z,12.11
2017-10-22T08:46:13.307Z,12.13
2017-10-22T08:48:48.964Z,12.14
2017-10-22T08:51:22.583Z,12.22
2017-10-22T08:53:56.041Z,12.33
2017-10-22T08:56:28.060Z,12.25
2017-10-22T08:59:05.702Z,12.34
2017-10-22T09:01:44.977Z,12.61
2017-10-22T09:04:17.302Z,12.49
2017-10-22T09:07:00.364Z,12.53
2017-10-22T09:09:33.514Z,12.41
2017-10-22T09:12:06.821Z,12.66
2017-10-22T09:14:40.273Z,12.70
2017-10-22T09:17:15.939Z,12.83
2017-10-22T09:19:47.823Z,12.91
2017-10-22T09:22:19.808Z,13.12
2017-10-22T09:24:51.422Z,12.89
2017-10-22T09:27:24.272Z,12.70
2017-10-22T09:29:55.357Z,12.68
2017-10-22T09:32:34.709Z,12.66
2017-10-22T09:35:14.872Z,12.62
2017-10-22T09:37:48.924Z,12.48
2017-10-22T09:40:19.864Z,12.68
2017-10-22T09:42:53.128Z,12.58
2017-10-22T09:45:24.150Z,12.73
2017-10-22T09:47:55.724Z,12.60
2017-10-22T09:50:29.108Z,12.51
2017-10-22T09:53:00.780Z,12.59
2017-10-22T09:55:39.411Z,12.66
2017-10-22T09:58:19.899Z,12.73
2017-10-22T10:00:54.489Z,12.76
2017-10-22T10:03:53.220Z,12.70
2017-10-22T10:09:15.592Z,12.78
2017-10-22T10:11:55.143Z,12.84
2017-10-22T10:14:40.393Z,12.79
2017-10-22T10:17:19.938Z,12.82
2017-10-22T10:19:55.382Z,12.80
2017-10-22T10:22:26.534Z,12.86
2017-10-22T10:25:00.760Z,12.92
2017-10-22T10:27:34.379Z,12.67
2017-10-22T10:30:10.402Z,12.71
2017-10-22T10:36:21.529Z,12.95
2017-10-22T10:39:00.266Z,12.88
2017-10-22T10:41:49.922Z,12.65
2017-10-22T10:44:51.982Z,12.66
2017-10-22T10:47:49.180Z,12.54
2017-10-22T10:53:55.486Z,12.48
2017-10-22T10:56:26.846Z,12.51
2017-10-22T10:59:04.657Z,12.48
2017-10-22T11:01:44.324Z,12.46
2017-10-22T11:04:22.061Z,12.42
2017-10-22T11:06:57.835Z,12.36
2017-10-22T11:09:40.568Z,12.44
2017-10-22T11:21:01.895Z,12.45
2017-10-22T11:23:41.846Z,12.42
2017-10-22T11:26:21.794Z,12.45
2017-10-22T11:28:58.596Z,12.33
2017-10-22T11:31:40.861Z,12.29
2017-10-22T11:34:14.632Z,12.17
2017-10-22T11:36:55.001Z,12.37
2017-10-22T11:39:32.402Z,12.26
2017-10-22T11:42:24.625Z,12.24
2017-10-22T11:44:57.049Z,12.28
2017-10-22T11:47:32.362Z,12.13
2017-10-22T11:50:12.942Z,12.03
2017-10-22T11:52:48.306Z,11.89
2017-10-22T11:55:21.980Z,11.88
2017-10-22T11:57:54.122Z,11.98
2017-10-22T12:00:33.049Z,11.90
2017-10-22T12:03:05.600Z,11.89
2017-10-22T12:05:48.920Z,11.88
2017-10-22T12:08:23.016Z,11.80
2017-10-22T12:10:58.391Z,11.91
2017-10-22T12:13:44.966Z,11.84
2017-10-22T12:16:16.180Z,11.77
2017-10-22T12:18:52.759Z,11.83
2017-10-22T12:24:19.609Z,11.77
2017-10-22T12:26:52.676Z,11.66
2017-10-22T12:29:24.375Z,11.65
2017-10-22T12:32:00.860Z,11.59
2017-10-22T12:34:36.715Z,11.58
2017-10-22T12:37:14.354Z,11.64
2017-10-22T12:39:45.389Z,11.61
2017-10-22T12:42:17.275Z,11.53
2017-10-22T12:44:57.771Z,11.49
2017-10-22T12:47:49.338Z,11.55
2017-10-22T12:53:40.180Z,11.53
2017-10-22T12:56:34.975Z,11.52
2017-10-22T12:59:19.549Z,11.52
2017-10-22T13:01:58.224Z,11.43
2017-10-22T13:04:29.768Z,11.55
2017-10-22T13:07:01.831Z,11.61
2017-10-22T13:09:41.101Z,11.63
2017-10-22T13:12:14.719Z,11.52
2017-10-22T13:14:48.748Z,11.51
2017-10-22T13:17:20.911Z,11.55
2017-10-22T13:19:52.892Z,11.47
2017-10-22T13:22:26.815Z,11.48
2017-10-22T13:25:00.542Z,11.41
2017-10-22T13:27:33.486Z,11.39
2017-10-22T13:30:11.961Z,11.35
2017-10-22T13:32:48.259Z,11.31
2017-10-22T13:35:19.494Z,11.31
2017-10-22T13:37:52.585Z,11.27
2017-10-22T13:40:31.346Z,11.25
2017-10-22T13:43:13.664Z,11.34
2017-10-22T13:45:48.294Z,11.24
2017-10-22T13:48:24.233Z,11.24
2017-10-22T13:51:00.690Z,11.26
2017-10-22T13:53:31.750Z,11.28
2017-10-22T13:56:03.365Z,11.37
2017-10-22T13:58:39.709Z,11.21
2017-10-22T14:01:26.244Z,11.28
2017-10-22T14:04:02.652Z,11.28
2017-10-22T14:06:43.061Z,11.25
2017-10-22T14:09:17.409Z,11.30
2017-10-22T14:11:50.317Z,11.26
2017-10-22T14:14:24.630Z,11.18
2017-10-22T14:16:55.981Z,11.16
2017-10-22T14:19:29.746Z,11.14
2017-10-22T14:22:03.210Z,11.15
2017-10-22T14:24:39.442Z,11.03
2017-10-22T14:27:14.224Z,11.01
2017-10-22T14:29:46.187Z,11.08
2017-10-22T14:32:21.564Z,10.95
2017-10-22T14:34:54.790Z,10.88
2017-10-22T14:37:30.323Z,10.81
2017-10-22T14:40:01.657Z,10.86
2017-10-22T14:42:33.724Z,10.86
2017-10-22T14:45:17.040Z,10.85
2017-10-22T14:47:50.344Z,10.89
2017-10-22T14:50:24.616Z,10.89
2017-10-22T14:52:57.017Z,10.82
2017-10-22T14:55:31.797Z,10.84
2017-10-22T14:58:04.432Z,10.74
2017-10-22T15:00:38.621Z,10.81
2017-10-22T15:03:12.361Z,10.72
2017-10-22T15:05:46.938Z,10.69
2017-10-22T15:08:18.529Z,10.67
2017-10-22T15:10:52.823Z,10.62
2017-10-22T15:13:27.936Z,10.63
2017-10-22T15:15:59.245Z,10.56
2017-10-22T15:18:30.524Z,10.59
2017-10-22T15:21:01.444Z,10.54
2017-10-22T15:23:34.478Z,10.51
2017-10-22T15:26:06.475Z,10.44
2017-10-22T15:28:46.696Z,10.34
2017-10-22T15:31:25.323Z,10.38
2017-10-22T15:33:57.852Z,10.38
2017-10-22T15:36:32.285Z,10.29
2017-10-22T15:39:04.434Z,10.26
2017-10-22T15:41:37.753Z,10.29
2017-10-22T15:44:12.376Z,10.21
2017-10-22T15:47:02.565Z,10.24
2017-10-22T15:52:40.509Z,10.02
2017-10-22T15:55:15.869Z,10.09
2017-10-22T15:57:50.145Z,10.08
2017-10-22T16:00:24.032Z,10.03
2017-10-22T16:03:07.742Z,10.10
2017-10-22T16:05:43.519Z,10.08
2017-10-22T16:08:15.635Z,10.08
2017-10-22T16:10:54.330Z,10.00
2017-10-22T16:13:31.001Z,9.98
2017-10-22T16:16:04.409Z,10.04
2017-10-22T16:18:37.628Z,9.92
2017-10-22T16:21:10.631Z,9.93
2017-10-22T16:23:43.153Z,9.92
2017-10-22T16:26:14.818Z,9.93
2017-10-22T16:28:45.917Z,9.84
2017-10-22T16:31:17.586Z,9.78
2017-10-22T16:33:48.839Z,9.69
2017-10-22T16:36:25.980Z,9.77
2017-10-22T16:39:09.693Z,9.68
2017-10-22T16:44:40.322Z,9.68
2017-10-22T16:47:13.303Z,9.64
2017-10-22T16:49:45.230Z,9.61
2017-10-22T16:52:19.795Z,9.55
2017-10-22T16:54:52.426Z,9.60
2017-10-22T16:57:27.469Z,9.41
2017-10-22T16:59:59.468Z,9.47
2017-10-22T17:02:30.017Z,9.41
2017-10-22T17:05:01.667Z,9.43
2017-10-22T17:07:34.076Z,9.33
2017-10-22T17:10:08.228Z,9.36
2017-10-22T17:13:16.905Z,9.26
2017-10-22T17:15:49.369Z,9.31
2017-10-22T17:18:22.965Z,9.25
2017-10-22T17:20:54.380Z,9.23
2017-10-22T17:23:26.486Z,9.28
2017-10-22T17:26:10.000Z,9.29
2017-10-22T17:28:45.520Z,9.25
2017-10-22T17:31:16.765Z,9.27
2017-10-22T17:33:48.223Z,9.17
2017-10-22T17:36:20.084Z,9.18
2017-10-22T17:38:53.254Z,9.18
2017-10-22T17:59:24.020Z,8.99
2017-10-22T18:01:55.171Z,9.03
2017-10-22T18:04:31.549Z,9.03
2017-10-22T18:07:03.183Z,9.10
2017-10-22T18:09:34.375Z,9.13
2017-10-22T18:12:06.038Z,9.14
2017-10-22T18:14:41.061Z,9.13
2017-10-22T18:17:16.416Z,9.09
2017-10-22T18:20:03.113Z,8.99
2017-10-22T18:25:19.974Z,9.03
2017-10-22T18:27:51.288Z,9.03
2017-10-22T18:30:22.431Z,9.03
2017-10-22T18:32:54.483Z,9.06
2017-10-22T18:35:28.589Z,9.07
2017-10-22T18:38:04.660Z,9.05
2017-10-22T18:40:43.514Z,8.98
2017-10-22T18:43:22.114Z,8.98
2017-10-22T18:46:01.322Z,9.02
2017-10-22T18:50:23.718Z,8.98
2017-10-22T18:53:17.418Z,9.04
2017-10-22T18:55:48.981Z,9.06
2017-10-22T18:58:20.334Z,9.10
2017-10-22T19:00:53.525Z,8.96
2017-10-22T19:03:25.113Z,8.98
2017-10-22T19:05:56.945Z,9.06
2017-10-22T19:08:29.402Z,8.98
2017-10-22T19:11:03.047Z,8.93
2017-10-22T19:13:42.781Z,9.01
2017-10-22T19:16:17.609Z,9.04
2017-10-22T19:18:49.260Z,9.05
2017-10-22T19:21:24.926Z,8.95
2017-10-22T19:23:59.130Z,9.08
2017-10-22T19:29:23.618Z,9.04
2017-10-22T19:31:57.349Z,9.07
2017-10-22T19:34:29.100Z,9.13
2017-10-22T19:37:02.297Z,9.11
2017-10-22T19:39:39.181Z,9.09
2017-10-22T19:42:12.024Z,9.05
2017-10-22T19:44:51.373Z,9.03
2017-10-22T19:47:24.643Z,8.94
2017-10-22T19:49:57.438Z,8.98
2017-10-22T19:52:29.345Z,9.05
2017-10-22T19:55:06.994Z,9.11
2017-10-22T19:57:45.509Z,9.13
2017-10-22T20:00:36.352Z,9.12
2017-10-22T20:03:14.848Z,9.18
2017-10-22T20:05:52.082Z,9.19
2017-10-22T20:08:40.058Z,9.09
2017-10-22T20:11:22.251Z,9.13
2017-10-22T20:14:02.933Z,9.09
2017-10-22T20:16:41.496Z,9.01
2017-10-22T20:19:24.429Z,9.10
2017-10-22T20:22:03.595Z,9.09
2017-10-22T20:24:38.543Z,9.15
2017-10-22T20:27:10.620Z,9.11
2017-10-22T20:29:45.903Z,9.19
2017-10-22T20:35:12.954Z,9.19
2017-10-22T20:38:02.583Z,9.20
2017-10-22T20:40:33.656Z,9.19
2017-10-22T20:43:04.481Z,9.23
2017-10-22T20:45:39.672Z,9.16
2017-10-22T20:48:11.574Z,9.22
2017-10-22T20:50:43.942Z,9.21
2017-10-22T20:53:16.729Z,9.22
2017-10-22T20:55:50.112Z,9.25
2017-10-22T20:58:26.729Z,9.26
2017-10-22T21:01:01.266Z,9.22
2017-10-22T21:03:38.994Z,9.20
2017-10-22T21:06:13.736Z,9.24
2017-10-22T21:08:50.369Z,9.18
2017-10-22T21:11:46.704Z,9.29
2017-10-22T21:14:28.988Z,9.21
2017-10-22T21:16:59.798Z,9.23
2017-10-22T21:19:32.371Z,9.21
2017-10-22T21:22:04.620Z,9.27
2017-10-22T21:24:37.272Z,9.32
2017-10-22T21:27:09.971Z,9.29
2017-10-22T21:29:43.920Z,9.26
2017-10-22T21:32:15.432Z,9.27
2017-10-22T21:34:46.196Z,9.27
2017-10-22T21:37:18.550Z,9.27
2017-10-22T21:40:06.513Z,9.32
2017-10-22T21:42:44.232Z,9.32
2017-10-22T21:45:19.463Z,9.30
2017-10-22T21:47:54.766Z,9.30
2017-10-22T21:50:26.466Z,9.24
2017-10-22T21:52:59.715Z,9.28
2017-10-22T21:55:37.926Z,9.25
2017-10-22T21:58:12.486Z,9.25
2017-10-22T22:00:50.371Z,9.30
2017-10-22T22:03:48.587Z,9.22
2017-10-22T22:06:20.952Z,9.27
2017-10-22T22:08:51.779Z,9.29
2017-10-22T22:11:22.942Z,9.28
2017-10-22T22:13:54.460Z,9.27
2017-10-22T22:16:25.997Z,9.22
2017-10-22T22:18:58.873Z,9.24
2017-10-22T22:21:29.817Z,9.23
2017-10-22T22:24:02.357Z,9.24
2017-10-22T22:26:33.173Z,9.24
2017-10-22T22:29:07.799Z,9.23
2017-10-22T22:31:45.318Z,9.22
2017-10-22T22:34:17.280Z,9.24
2017-10-22T22:36:51.456Z,9.24
2017-10-22T22:39:27.552Z,9.21
2017-10-22T22:42:04.305Z,9.22
2017-10-22T22:44:38.643Z,9.15
2017-10-22T22:47:10.322Z,9.14
2017-10-22T22:49:43.925Z,9.11
2017-10-22T22:52:15.885Z,9.14
2017-10-22T22:54:47.170Z,9.18
2017-10-22T22:57:19.297Z,9.11
2017-10-22T22:59:51.900Z,9.09
2017-10-22T23:02:25.407Z,9.10
2017-10-22T23:04:57.995Z,9.12
2017-10-22T23:07:30.806Z,9.09
2017-10-22T23:10:02.008Z,9.14
2017-10-22T23:12:33.374Z,9.08
2017-10-22T23:15:11.876Z,9.07
2017-10-22T23:17:44.351Z,9.09
2017-10-22T23:20:15.869Z,9.09
2017-10-22T23:22:47.308Z,8.96
2017-10-22T23:25:19.006Z,9.07
2017-10-22T23:27:51.365Z,9.01
2017-10-22T23:30:23.359Z,9.06
2017-10-22T23:32:55.098Z,9.03
2017-10-22T23:35:29.407Z,9.07
2017-10-22T23:38:03.109Z,9.04
2017-10-22T23:40:37.410Z,9.08
2017-10-22T23:43:09.658Z,9.04
2017-10-22T23:45:44.029Z,9.11
2017-10-22T23:48:15.667Z,9.10
2017-10-22T23:50:46.892Z,9.11
2017-10-22T23:53:18.450Z,9.09
2017-10-22T23:55:49.808Z,9.10
2017-10-22T23:58:21.182Z,9.07
